Time;durP1;ratioP1;P1;durP2;ratioP2;P2;SDS_P1;SDS_P2;PMS_P1;PMS_P2;Temp;Humidity;BMP_temperature;BMP_pressure;BME280_temperature;BME280_humidity;BME280_pressure;Samples;Min_cycle;Max_cycle;Signal;HPM_P1;HPM_P2
2024/03/02 00:01:54;;;;;;;7.13;4.10;;;;;;;;;;7420473;19;19942;-80
2024/03/02 00:04:41;;;;;;;5.95;3.17;;;;;;;;;;7417360;19;19914;-80
2024/03/02 00:07:28;;;;;;;8.50;3.70;;;;;;;;;;7414826;19;20245;-79
2024/03/02 00:10:23;;;;;;;7.20;3.95;;;;;;;;;;7419615;19;19966;-79
2024/03/02 00:13:12;;;;;;;8.32;4.68;;;;;;;;;;7419089;19;19943;-79
2024/03/02 00:15:57;;;;;;;6.60;3.90;;;;;;;;;;7418579;19;19910;-79
2024/03/02 00:18:42;;;;;;;7.05;3.90;;;;;;;;;;7418133;19;20269;-79
2024/03/02 00:21:31;;;;;;;6.78;4.00;;;;;;;;;;7416582;19;19919;-79
2024/03/02 00:24:24;;;;;;;12.15;4.72;;;;;;;;;;7417626;19;19918;-79
2024/03/02 00:27:16;;;;;;;6.43;4.00;;;;;;;;;;7415932;19;19922;-79
2024/03/02 00:30:03;;;;;;;6.80;4.30;;;;;;;;;;7417198;19;19922;-79
2024/03/02 00:32:53;;;;;;;8.07;4.05;;;;;;;;;;7421213;19;19923;-79
2024/03/02 00:35:37;;;;;;;6.65;3.90;;;;;;;;;;7418124;19;20014;-79
2024/03/02 00:38:22;;;;;;;6.80;3.95;;;;;;;;;;7417741;19;20334;-79
2024/03/02 00:41:10;;;;;;;11.30;3.97;;;;;;;;;;7417917;19;19928;-79
2024/03/02 00:44:05;;;;;;;9.05;3.95;;;;;;;;;;7417789;19;19922;-79
2024/03/02 00:46:49;;;;;;;6.95;3.80;;;;;;;;;;7415921;19;19923;-79
2024/03/02 00:49:34;;;;;;;7.28;4.10;;;;;;;;;;7416279;19;19927;-79
2024/03/02 00:52:18;;;;;;;6.75;3.65;;;;;;;;;;7416441;19;19941;-79
2024/03/02 00:55:06;;;;;;;9.18;4.25;;;;;;;;;;7418517;19;19915;-79
2024/03/02 00:57:53;;;;;;;7.03;4.20;;;;;;;;;;7418426;19;19918;-79
2024/03/02 01:00:42;;;;;;;8.52;4.30;;;;;;;;;;7418267;19;19918;-79
2024/03/02 01:03:26;;;;;;;9.00;4.40;;;;;;;;;;7420193;19;19921;-79
2024/03/02 01:06:13;;;;;;;7.43;4.40;;;;;;;;;;7419345;19;19918;-79
2024/03/02 01:09:05;;;;;;;6.80;3.78;;;;;;;;;;7416076;19;19930;-79
2024/03/02 01:11:54;;;;;;;6.85;4.13;;;;;;;;;;7416253;19;19951;-79
2024/03/02 01:14:41;;;;;;;7.85;3.60;;;;;;;;;;7412922;19;19918;-79
2024/03/02 01:17:28;;;;;;;9.40;4.00;;;;;;;;;;7413568;19;19918;-79
2024/03/02 01:20:15;;;;;;;11.65;4.53;;;;;;;;;;7412646;19;20258;-79
2024/03/02 01:23:02;;;;;;;7.93;4.22;;;;;;;;;;7412149;19;19935;-79
2024/03/02 01:25:47;;;;;;;10.50;4.40;;;;;;;;;;7413166;19;20325;-79
2024/03/02 01:28:33;;;;;;;8.40;3.67;;;;;;;;;;7413148;19;19915;-79
2024/03/02 01:31:18;;;;;;;11.82;4.28;;;;;;;;;;7413042;19;19910;-79
2024/03/02 01:34:09;;;;;;;7.45;4.10;;;;;;;;;;7414398;19;19903;-79
2024/03/02 01:36:56;;;;;;;6.40;3.50;;;;;;;;;;7414284;19;19918;-79
2024/03/02 01:39:40;;;;;;;7.10;4.40;;;;;;;;;;7417545;19;19955;-79
2024/03/02 01:42:27;;;;;;;6.65;4.00;;;;;;;;;;7419211;19;19926;-79
2024/03/02 01:45:16;;;;;;;7.47;3.33;;;;;;;;;;7420494;19;19915;-79
2024/03/02 01:48:02;;;;;;;7.18;3.92;;;;;;;;;;7416129;19;19918;-79
2024/03/02 01:50:52;;;;;;;8.80;3.83;;;;;;;;;;7416888;19;19918;-79
2024/03/02 01:53:37;;;;;;;9.32;4.40;;;;;;;;;;7418210;19;19921;-79
2024/03/02 01:56:21;;;;;;;7.38;4.03;;;;;;;;;;7418615;19;19919;-79
2024/03/02 01:59:06;;;;;;;7.47;4.13;;;;;;;;;;7416204;19;19914;-80
2024/03/02 02:01:52;;;;;;;8.43;3.47;;;;;;;;;;7413674;19;19907;-80
2024/03/02 02:04:39;;;;;;;7.00;4.18;;;;;;;;;;7414572;19;19926;-80
2024/03/02 02:07:31;;;;;;;7.45;3.30;;;;;;;;;;7415691;19;19911;-80
2024/03/02 02:10:18;;;;;;;8.30;4.30;;;;;;;;;;7412151;19;19978;-80
2024/03/02 02:13:07;;;;;;;10.02;3.70;;;;;;;;;;7414788;19;19914;-80
2024/03/02 02:15:52;;;;;;;7.05;3.38;;;;;;;;;;7414446;19;20329;-80
2024/03/02 02:18:39;;;;;;;7.55;3.92;;;;;;;;;;7415462;19;19930;-80
2024/03/02 02:21:28;;;;;;;7.28;4.30;;;;;;;;;;7412669;19;19918;-79
2024/03/02 02:24:13;;;;;;;9.68;4.50;;;;;;;;;;7414079;19;19929;-79
2024/03/02 02:26:59;;;;;;;7.20;4.00;;;;;;;;;;7411854;19;20310;-79
2024/03/02 02:29:43;;;;;;;;;;;;;;;;;;7417775;19;19915;-79
2024/03/02 02:32:28;;;;;;;5.82;3.08;;;;;;;;;;7412716;19;19970;-79
2024/03/02 02:35:12;;;;;;;;;;;;;;;;;;7416973;19;19997;-79
2024/03/02 02:38:02;;;;;;;6.93;3.67;;;;;;;;;;7414105;19;19919;-79
2024/03/02 02:40:50;;;;;;;7.65;3.42;;;;;;;;;;7414783;19;19935;-79
2024/03/02 02:43:35;;;;;;;;;;;;;;;;;;7417837;19;19994;-79
2024/03/02 02:46:19;;;;;;;7.45;3.53;;;;;;;;;;7415221;19;19951;-79
2024/03/02 02:49:03;;;;;;;8.48;4.32;;;;;;;;;;7413819;19;19978;-79
2024/03/02 02:51:47;;;;;;;;;;;;;;;;;;7418669;19;19918;-79
2024/03/02 02:54:36;;;;;;;9.40;3.50;;;;;;;;;;7413428;19;19928;-79
2024/03/02 02:57:26;;;;;;;7.97;3.53;;;;;;;;;;7413346;19;19918;-79
2024/03/02 03:00:18;;;;;;;11.18;4.63;;;;;;;;;;7411276;19;19906;-79
2024/03/02 03:03:05;;;;;;;7.65;3.80;;;;;;;;;;7411960;19;19974;-79
2024/03/02 03:05:49;;;;;;;8.88;4.38;;;;;;;;;;7411960;19;19932;-79
2024/03/02 03:08:33;;;;;;;;;;;;;;;;;;7414735;19;20383;-79
2024/03/02 03:11:22;;;;;;;6.30;3.60;;;;;;;;;;7410161;19;19918;-79
2024/03/02 03:14:06;;;;;;;7.45;3.60;;;;;;;;;;7411224;19;19923;-80
2024/03/02 03:16:51;;;;;;;;;;;;;;;;;;7421312;19;19910;-79
2024/03/02 03:19:35;;;;;;;7.85;3.35;;;;;;;;;;7419481;19;19951;-79
2024/03/02 03:22:24;;;;;;;8.38;3.65;;;;;;;;;;7415798;19;20258;-79
2024/03/02 03:25:11;;;;;;;7.90;4.35;;;;;;;;;;7417492;19;20334;-79
2024/03/02 03:27:58;;;;;;;;;;;;;;;;;;7415261;19;20364;-79
2024/03/02 03:30:43;;;;;;;6.43;2.97;;;;;;;;;;7419329;19;20457;-79
2024/03/02 03:33:31;;;;;;;7.80;4.05;;;;;;;;;;7415973;19;20334;-80
2024/03/02 03:36:15;;;;;;;8.25;3.58;;;;;;;;;;7417573;19;19911;-79
2024/03/02 03:39:03;;;;;;;7.28;3.50;;;;;;;;;;7419098;19;19964;-79
2024/03/02 03:41:47;;;;;;;6.88;3.58;;;;;;;;;;7415241;19;19918;-79
2024/03/02 03:44:37;;;;;;;8.23;4.03;;;;;;;;;;7417223;19;19919;-79
2024/03/02 03:47:23;;;;;;;9.20;4.20;;;;;;;;;;7414905;19;19927;-79
2024/03/02 03:50:08;;;;;;;;;;;;;;;;;;7420742;19;19915;-80
2024/03/02 03:52:55;;;;;;;8.43;3.28;;;;;;;;;;7419904;19;20321;-80
2024/03/02 03:55:46;;;;;;;9.70;4.22;;;;;;;;;;7418227;19;19974;-80
2024/03/02 03:58:33;;;;;;;9.85;3.92;;;;;;;;;;7420107;19;19920;-80
2024/03/02 04:01:23;;;;;;;10.07;4.00;;;;;;;;;;7415628;19;19937;-80
2024/03/02 04:04:07;;;;;;;9.80;4.03;;;;;;;;;;7416957;19;19914;-79
2024/03/02 04:06:54;;;;;;;8.20;4.47;;;;;;;;;;7416518;19;19918;-81
2024/03/02 04:09:40;;;;;;;6.95;3.60;;;;;;;;;;7417200;19;19935;-80
2024/03/02 04:12:27;;;;;;;11.25;4.70;;;;;;;;;;7415164;19;19910;-78
2024/03/02 04:15:14;;;;;;;7.97;4.30;;;;;;;;;;7411638;19;20261;-79
2024/03/02 04:18:03;;;;;;;7.50;4.00;;;;;;;;;;7408698;19;19927;-79
2024/03/02 04:20:47;;;;;;;11.20;4.70;;;;;;;;;;7412297;19;19911;-79
2024/03/02 04:23:34;;;;;;;9.40;4.47;;;;;;;;;;7410479;19;19934;-79
2024/03/02 04:26:22;;;;;;;;;;;;;;;;;;7412548;19;19921;-79
2024/03/02 04:29:06;;;;;;;7.75;3.60;;;;;;;;;;7410638;19;19934;-79
2024/03/02 04:31:55;;;;;;;9.68;4.07;;;;;;;;;;7413348;19;20580;-79
2024/03/02 04:34:44;;;;;;;9.50;3.80;;;;;;;;;;7410604;19;19922;-79
2024/03/02 04:37:31;;;;;;;9.90;4.22;;;;;;;;;;7409834;19;19922;-79
2024/03/02 04:40:15;;;;;;;;;;;;;;;;;;7413128;19;20272;-79
2024/03/02 04:43:02;;;;;;;7.72;3.30;;;;;;;;;;7406898;19;19915;-78
2024/03/02 04:45:49;;;;;;;10.20;4.38;;;;;;;;;;7410918;19;19917;-79
2024/03/02 04:48:33;;;;;;;10.20;5.43;;;;;;;;;;7412030;19;19925;-79
2024/03/02 04:51:22;;;;;;;9.00;4.47;;;;;;;;;;7412132;19;19921;-79
2024/03/02 04:54:09;;;;;;;9.27;4.07;;;;;;;;;;7411625;19;20341;-78
2024/03/02 04:56:55;;;;;;;8.60;4.10;;;;;;;;;;7410441;19;19926;-79
2024/03/02 04:59:42;;;;;;;11.68;4.53;;;;;;;;;;7411305;19;19935;-79
2024/03/02 05:02:26;;;;;;;11.48;5.18;;;;;;;;;;7409892;19;19919;-79
2024/03/02 05:05:15;;;;;;;9.07;4.22;;;;;;;;;;7411453;19;19923;-79
2024/03/02 05:08:04;;;;;;;8.15;4.20;;;;;;;;;;7410919;19;19926;-79
2024/03/02 05:10:48;;;;;;;9.05;3.65;;;;;;;;;;7412154;19;19966;-79
2024/03/02 05:13:32;;;;;;;9.10;4.03;;;;;;;;;;7409525;19;19923;-78
2024/03/02 05:16:17;;;;;;;12.52;5.25;;;;;;;;;;7410673;19;19923;-79
2024/03/02 05:19:01;;;;;;;;;;;;;;;;;;7413594;19;20321;-79
2024/03/02 05:21:45;;;;;;;9.60;4.20;;;;;;;;;;7410812;19;19982;-79
2024/03/02 05:24:31;;;;;;;;;;;;;;;;;;7413270;19;20348;-79
2024/03/02 05:27:15;;;;;;;7.95;3.70;;;;;;;;;;7409485;19;19925;-78
2024/03/02 05:30:00;;;;;;;10.10;4.90;;;;;;;;;;7413827;19;19911;-79
2024/03/02 05:32:48;;;;;;;10.23;4.05;;;;;;;;;;7412473;19;20329;-78
2024/03/02 05:35:33;;;;;;;9.63;4.47;;;;;;;;;;7412925;19;19922;-79
2024/03/02 05:38:19;;;;;;;8.15;4.00;;;;;;;;;;7406314;19;19922;-79
2024/03/02 05:41:07;;;;;;;10.77;4.70;;;;;;;;;;7413337;19;19926;-78
2024/03/02 05:43:51;;;;;;;6.63;3.75;;;;;;;;;;7410617;19;19918;-78
2024/03/02 05:46:35;;;;;;;8.73;3.88;;;;;;;;;;7410316;19;20342;-79
2024/03/02 05:49:19;;;;;;;7.80;3.90;;;;;;;;;;7409296;19;19926;-79
2024/03/02 05:52:04;;;;;;;9.52;4.88;;;;;;;;;;7412336;19;19948;-79
2024/03/02 05:54:48;;;;;;;;;;;;;;;;;;7413067;19;19926;-79
2024/03/02 05:57:47;;;;;;;14.70;3.22;;;;;;;;;;7408533;19;19914;-79
2024/03/02 06:00:33;;;;;;;8.23;3.92;;;;;;;;;;7410302;19;19921;-79
2024/03/02 06:03:20;;;;;;;7.03;3.50;;;;;;;;;;7410124;19;19937;-79
2024/03/02 06:06:07;;;;;;;7.80;3.85;;;;;;;;;;7410597;19;20429;-79
2024/03/02 06:08:55;;;;;;;6.85;3.97;;;;;;;;;;7410731;19;19941;-79
2024/03/02 06:11:42;;;;;;;8.38;4.32;;;;;;;;;;7409497;19;19979;-79
2024/03/02 06:14:29;;;;;;;11.70;5.00;;;;;;;;;;7409522;19;19922;-79
2024/03/02 06:17:16;;;;;;;7.85;4.68;;;;;;;;;;7410170;19;20330;-79
2024/03/02 06:20:02;;;;;;;6.93;3.55;;;;;;;;;;7410911;19;19938;-79
2024/03/02 06:22:47;;;;;;;9.88;4.82;;;;;;;;;;7409607;19;19945;-79
2024/03/02 06:25:31;;;;;;;;;;;;;;;;;;7415011;19;19994;-79
2024/03/02 06:28:15;;;;;;;7.50;3.95;;;;;;;;;;7407771;19;19915;-79
2024/03/02 06:31:02;;;;;;;6.47;3.92;;;;;;;;;;7411833;19;19914;-79
2024/03/02 06:33:49;;;;;;;6.72;3.72;;;;;;;;;;7411644;19;19918;-78
2024/03/02 06:36:33;;;;;;;9.55;4.40;;;;;;;;;;7409632;19;20269;-79
2024/03/02 06:39:19;;;;;;;12.35;5.68;;;;;;;;;;7410999;19;19926;-78
2024/03/02 06:42:06;;;;;;;10.23;4.50;;;;;;;;;;7410242;19;19990;-79
2024/03/02 06:44:51;;;;;;;10.55;4.97;;;;;;;;;;7411864;19;19922;-79
2024/03/02 06:47:37;;;;;;;;;;;;;;;;;;7410901;19;19933;-79
2024/03/02 06:50:21;;;;;;;11.32;5.00;;;;;;;;;;7400790;19;19941;-79
2024/03/02 06:53:06;;;;;;;;;;;;;;;;;;7412497;19;20317;-78
2024/03/02 06:55:52;;;;;;;8.27;4.05;;;;;;;;;;7409598;19;19926;-78
2024/03/02 06:58:37;;;;;;;11.52;4.22;;;;;;;;;;7411972;19;19954;-80
2024/03/02 07:01:21;;;;;;;;;;;;;;;;;;7409834;19;20016;-79
2024/03/02 07:04:10;;;;;;;8.30;4.47;;;;;;;;;;7405318;19;19927;-79
2024/03/02 07:06:57;;;;;;;8.07;3.70;;;;;;;;;;7410789;19;19914;-78
2024/03/02 07:09:41;;;;;;;;;;;;;;;;;;7414678;19;19934;-78
2024/03/02 07:12:27;;;;;;;13.48;4.45;;;;;;;;;;7408738;19;19918;-78
2024/03/02 07:15:28;;;;;;;11.70;4.13;;;;;;;;;;7411521;19;19906;-79
2024/03/02 07:18:12;;;;;;;11.77;4.97;;;;;;;;;;7408709;19;19942;-78
2024/03/02 07:21:01;;;;;;;12.60;4.68;;;;;;;;;;7411070;19;19986;-78
2024/03/02 07:23:45;;;;;;;21.45;6.57;;;;;;;;;;7409794;19;19927;-78
2024/03/02 07:26:32;;;;;;;9.27;5.03;;;;;;;;;;7408839;19;19945;-80
2024/03/02 07:29:16;;;;;;;15.73;5.70;;;;;;;;;;7408603;19;20313;-79
2024/03/02 07:32:03;;;;;;;11.35;5.10;;;;;;;;;;7410347;19;19930;-78
2024/03/02 07:34:52;;;;;;;17.75;6.15;;;;;;;;;;7409872;19;19910;-78
2024/03/02 07:37:41;;;;;;;13.10;6.00;;;;;;;;;;7408423;19;20002;-79
2024/03/02 07:40:31;;;;;;;15.88;5.80;;;;;;;;;;7411181;19;20337;-79
2024/03/02 07:43:15;;;;;;;14.90;5.63;;;;;;;;;;7406671;19;19907;-78
2024/03/02 07:45:59;;;;;;;18.10;5.97;;;;;;;;;;7407823;19;19915;-80
2024/03/02 07:48:44;;;;;;;;;;;;;;;;;;7406555;19;19906;-78
2024/03/02 07:51:29;;;;;;;11.13;5.25;;;;;;;;;;7406667;19;19934;-79
2024/03/02 07:54:16;;;;;;;12.05;5.28;;;;;;;;;;7407842;19;19918;-79
2024/03/02 07:57:03;;;;;;;12.38;5.60;;;;;;;;;;7404802;19;20002;-78
2024/03/02 07:59:50;;;;;;;12.43;6.43;;;;;;;;;;7409890;19;19930;-80
2024/03/02 08:02:37;;;;;;;14.10;6.35;;;;;;;;;;7411477;19;19918;-79
2024/03/02 08:05:21;;;;;;;14.40;6.22;;;;;;;;;;7413895;19;19918;-79
2024/03/02 08:08:07;;;;;;;12.77;6.45;;;;;;;;;;7411522;19;19914;-78
2024/03/02 08:10:54;;;;;;;15.23;6.40;;;;;;;;;;7415292;19;19923;-78
2024/03/02 08:13:42;;;;;;;15.98;6.93;;;;;;;;;;7411384;19;19978;-78
2024/03/02 08:16:29;;;;;;;15.27;7.55;;;;;;;;;;7409438;19;20261;-78
2024/03/02 08:19:14;;;;;;;9.43;5.03;;;;;;;;;;7411832;19;19918;-78
2024/03/02 08:21:59;;;;;;;10.27;5.35;;;;;;;;;;7409403;19;19914;-78
2024/03/02 08:24:44;;;;;;;11.15;5.47;;;;;;;;;;7410870;19;19922;-80
2024/03/02 08:27:32;;;;;;;10.23;5.20;;;;;;;;;;7410910;19;19921;-78
2024/03/02 08:30:17;;;;;;;12.75;5.70;;;;;;;;;;7411399;19;19931;-78
2024/03/02 08:33:04;;;;;;;11.40;5.40;;;;;;;;;;7409886;19;19922;-79
2024/03/02 08:35:48;;;;;;;10.07;4.80;;;;;;;;;;7407486;19;19974;-79
2024/03/02 08:38:37;;;;;;;10.93;5.30;;;;;;;;;;7407768;19;20277;-78
2024/03/02 08:41:22;;;;;;;10.88;5.00;;;;;;;;;;7405301;19;19941;-78
2024/03/02 08:44:12;;;;;;;9.23;5.32;;;;;;;;;;7408938;19;20587;-79
2024/03/02 08:46:56;;;;;;;9.13;5.15;;;;;;;;;;7408926;19;19911;-79
2024/03/02 08:49:41;;;;;;;10.43;5.43;;;;;;;;;;7408357;19;20024;-79
2024/03/02 08:52:25;;;;;;;10.52;5.35;;;;;;;;;;7407922;19;19927;-79
2024/03/02 08:55:13;;;;;;;9.82;5.50;;;;;;;;;;7408819;19;19922;-79
2024/03/02 08:58:01;;;;;;;11.70;5.85;;;;;;;;;;7408751;19;19925;-79
2024/03/02 09:00:49;;;;;;;10.88;5.82;;;;;;;;;;7409746;19;19923;-79
2024/03/02 09:03:37;;;;;;;12.10;5.88;;;;;;;;;;7409800;19;19973;-80
2024/03/02 09:06:23;;;;;;;10.85;5.75;;;;;;;;;;7406135;19;20340;-80
2024/03/02 09:09:08;;;;;;;12.38;5.97;;;;;;;;;;7410338;19;19930;-79
2024/03/02 09:11:57;;;;;;;8.88;5.03;;;;;;;;;;7407026;19;19918;-80
2024/03/02 09:14:43;;;;;;;10.30;6.32;;;;;;;;;;7406267;19;19926;-79
2024/03/02 09:17:30;;;;;;;11.13;5.80;;;;;;;;;;7405716;19;20330;-80
2024/03/02 09:20:14;;;;;;;9.82;5.35;;;;;;;;;;7408075;19;19930;-80
2024/03/02 09:23:01;;;;;;;11.52;5.95;;;;;;;;;;7405102;19;20365;-80
2024/03/02 09:25:48;;;;;;;11.82;6.35;;;;;;;;;;7408252;19;19918;-79
2024/03/02 09:28:33;;;;;;;11.90;6.50;;;;;;;;;;7406827;19;19926;-79
2024/03/02 09:31:19;;;;;;;11.30;6.05;;;;;;;;;;7406455;19;19925;-79
2024/03/02 09:34:06;;;;;;;10.40;4.97;;;;;;;;;;7405313;19;19922;-79
2024/03/02 09:36:54;;;;;;;9.98;5.20;;;;;;;;;;7405322;19;19922;-79
2024/03/02 09:39:46;;;;;;;10.65;5.22;;;;;;;;;;7406545;19;19915;-79
2024/03/02 09:42:33;;;;;;;;;;;;;;;;;;7405941;19;19942;-79
2024/03/02 09:45:25;;;;;;;;;;;;;;;;;;7407880;19;19918;-78
2024/03/02 09:48:10;;;;;;;8.60;4.68;;;;;;;;;;7405532;19;19906;-79
2024/03/02 09:50:57;;;;;;;6.55;3.80;;;;;;;;;;7404862;19;20339;-79
2024/03/02 09:53:42;;;;;;;11.05;5.32;;;;;;;;;;7406691;19;20353;-78
2024/03/02 09:56:34;;;;;;;10.10;4.88;;;;;;;;;;7402466;19;19928;-79
2024/03/02 09:59:20;;;;;;;10.75;5.35;;;;;;;;;;7406858;19;20007;-78
2024/03/02 10:02:06;;;;;;;10.68;5.72;;;;;;;;;;7407078;19;19926;-78
2024/03/02 10:04:53;;;;;;;10.27;5.40;;;;;;;;;;7403478;19;19926;-78
2024/03/02 10:07:40;;;;;;;11.27;5.30;;;;;;;;;;7402882;19;20030;-78
2024/03/02 10:10:25;;;;;;;11.30;5.75;;;;;;;;;;7406838;19;19934;-79
2024/03/02 10:13:11;;;;;;;11.30;6.00;;;;;;;;;;7403405;19;19915;-78
2024/03/02 10:15:56;;;;;;;11.45;5.90;;;;;;;;;;7405596;19;19929;-78
2024/03/02 10:18:40;;;;;;;9.50;4.25;;;;;;;;;;7403435;19;19936;-78
2024/03/02 10:21:25;;;;;;;10.05;5.13;;;;;;;;;;7406051;19;19910;-77
2024/03/02 10:24:15;;;;;;;10.43;5.40;;;;;;;;;;7401401;19;19968;-78
2024/03/02 10:26:59;;;;;;;9.75;5.20;;;;;;;;;;7403718;19;19914;-78
2024/03/02 10:29:49;;;;;;;8.27;5.22;;;;;;;;;;7404798;19;19933;-78
2024/03/02 10:32:36;;;;;;;8.90;4.78;;;;;;;;;;7403184;19;20334;-77
2024/03/02 10:35:23;;;;;;;8.75;4.15;;;;;;;;;;7404645;19;19934;-78
2024/03/02 10:38:08;;;;;;;8.75;4.50;;;;;;;;;;7402795;19;19927;-77
2024/03/02 10:41:00;;;;;;;9.15;4.82;;;;;;;;;;7402206;19;20265;-77
2024/03/02 10:43:47;;;;;;;7.68;4.57;;;;;;;;;;7404032;19;19926;-78
2024/03/02 10:46:33;;;;;;;9.48;4.95;;;;;;;;;;7404138;19;20346;-78
2024/03/02 10:49:20;;;;;;;7.22;4.25;;;;;;;;;;7403654;19;19922;-78
2024/03/02 10:52:04;;;;;;;9.85;5.28;;;;;;;;;;7403860;19;19941;-78
2024/03/02 10:54:51;;;;;;;9.45;4.97;;;;;;;;;;7403742;19;19918;-78
2024/03/02 10:57:45;;;;;;;12.32;4.80;;;;;;;;;;7400805;19;20300;-78
2024/03/02 11:00:35;;;;;;;7.65;4.13;;;;;;;;;;7405594;19;20011;-78
2024/03/02 11:03:23;;;;;;;8.07;4.45;;;;;;;;;;7402009;19;20348;-78
2024/03/02 11:06:11;;;;;;;7.68;4.10;;;;;;;;;;7404526;19;19926;-78
2024/03/02 11:08:59;;;;;;;7.80;4.63;;;;;;;;;;7401953;19;19923;-78
2024/03/02 11:11:47;;;;;;;8.63;5.05;;;;;;;;;;7404893;19;19922;-78
2024/03/02 11:14:40;;;;;;;8.05;3.55;;;;;;;;;;7401578;19;19915;-78
2024/03/02 11:17:26;;;;;;;9.52;4.45;;;;;;;;;;7403250;19;19934;-78
2024/03/02 11:20:12;;;;;;;7.85;4.20;;;;;;;;;;7402463;19;19926;-78
2024/03/02 11:22:59;;;;;;;7.88;4.22;;;;;;;;;;7399953;19;19977;-78
2024/03/02 11:25:47;;;;;;;8.20;4.00;;;;;;;;;;7404070;19;19915;-78
2024/03/02 11:28:39;;;;;;;6.70;3.92;;;;;;;;;;7400915;19;20269;-79
2024/03/02 11:32:00;;;;;;;6.78;4.22;;;;;;;;;;7402570;19;19943;-78
2024/03/02 11:34:52;;;;;;;6.43;4.03;;;;;;;;;;7401708;19;19945;-78
2024/03/02 11:37:36;;;;;;;5.90;4.03;;;;;;;;;;7408259;19;19914;-78
2024/03/02 11:40:24;;;;;;;9.20;4.70;;;;;;;;;;7409359;19;19914;-78
2024/03/02 11:43:09;;;;;;;8.65;4.10;;;;;;;;;;7406149;19;19936;-78
2024/03/02 11:45:59;;;;;;;7.60;4.45;;;;;;;;;;7407836;19;20393;-78
2024/03/02 11:48:46;;;;;;;7.72;4.57;;;;;;;;;;7405520;19;19931;-78
2024/03/02 11:51:35;;;;;;;6.95;3.85;;;;;;;;;;7407603;19;19982;-78
2024/03/02 11:54:20;;;;;;;8.23;4.15;;;;;;;;;;7408615;19;19993;-78
2024/03/02 11:57:07;;;;;;;10.18;5.10;;;;;;;;;;7405606;19;19919;-78
2024/03/02 11:59:52;;;;;;;8.68;4.25;;;;;;;;;;7408027;19;19914;-78
2024/03/02 12:02:44;;;;;;;6.82;3.22;;;;;;;;;;7408244;19;19915;-78
2024/03/02 12:05:32;;;;;;;;;;;;;;;;;;7410772;19;19922;-79
2024/03/02 12:08:16;;;;;;;7.30;3.53;;;;;;;;;;7403874;19;19922;-79
2024/03/02 12:11:06;;;;;;;7.38;4.20;;;;;;;;;;7408665;19;19918;-79
2024/03/02 12:13:58;;;;;;;7.03;3.75;;;;;;;;;;7405911;19;19914;-78
2024/03/02 12:16:46;;;;;;;5.82;3.92;;;;;;;;;;7408573;19;19919;-79
2024/03/02 12:19:35;;;;;;;6.47;3.53;;;;;;;;;;7408820;19;20245;-79
2024/03/02 12:22:29;;;;;;;6.90;3.65;;;;;;;;;;7408755;19;20261;-78
2024/03/02 12:25:17;;;;;;;7.00;3.65;;;;;;;;;;7405896;19;20265;-79
2024/03/02 12:28:03;;;;;;;5.45;3.20;;;;;;;;;;7406040;19;19915;-78
2024/03/02 12:30:53;;;;;;;7.30;3.65;;;;;;;;;;7407441;19;19922;-79
2024/03/02 12:33:41;;;;;;;7.30;4.22;;;;;;;;;;7407979;19;19941;-79
2024/03/02 12:36:25;;;;;;;7.30;3.60;;;;;;;;;;7405729;19;19923;-79
2024/03/02 12:39:18;;;;;;;5.25;3.60;;;;;;;;;;7406730;19;19941;-78
2024/03/02 12:42:05;;;;;;;6.45;3.80;;;;;;;;;;7410143;19;19941;-79
2024/03/02 12:44:54;;;;;;;8.18;3.33;;;;;;;;;;7404721;19;19915;-78
2024/03/02 12:47:43;;;;;;;5.70;3.67;;;;;;;;;;7410588;19;19915;-79
2024/03/02 12:50:30;;;;;;;6.05;3.30;;;;;;;;;;7414767;19;19918;-79
2024/03/02 12:53:19;;;;;;;4.13;2.60;;;;;;;;;;7412335;19;20340;-79
2024/03/02 12:56:10;;;;;;;4.95;3.00;;;;;;;;;;7414570;19;19925;-79
2024/03/02 12:58:56;;;;;;;5.82;2.58;;;;;;;;;;7413344;19;19922;-79
2024/03/02 13:01:52;;;;;;;6.45;2.83;;;;;;;;;;7412934;19;19918;-79
2024/03/02 13:04:39;;;;;;;6.13;2.70;;;;;;;;;;7413158;19;19922;-80
2024/03/02 13:07:29;;;;;;;4.95;2.90;;;;;;;;;;7410188;19;20246;-79
2024/03/02 13:10:14;;;;;;;4.18;2.65;;;;;;;;;;7410955;19;19922;-78
2024/03/02 13:13:04;;;;;;;4.90;2.80;;;;;;;;;;7409628;19;19982;-78
2024/03/02 13:15:50;;;;;;;3.92;2.33;;;;;;;;;;7411125;19;19914;-78
2024/03/02 13:18:36;;;;;;;4.93;2.50;;;;;;;;;;7411772;19;19906;-78
2024/03/02 13:21:20;;;;;;;2.80;2.08;;;;;;;;;;7411185;19;19918;-78
2024/03/02 13:24:05;;;;;;;3.17;1.70;;;;;;;;;;7409745;19;19939;-79
2024/03/02 13:26:55;;;;;;;3.30;1.80;;;;;;;;;;7405401;19;19910;-78
2024/03/02 13:29:42;;;;;;;3.00;2.10;;;;;;;;;;7411181;19;19923;-78
2024/03/02 13:32:26;;;;;;;4.78;2.33;;;;;;;;;;7414208;19;19914;-79
2024/03/02 13:35:13;;;;;;;3.42;2.35;;;;;;;;;;7413594;19;20481;-80
2024/03/02 13:38:02;;;;;;;2.42;1.70;;;;;;;;;;7407602;19;19926;-79
2024/03/02 13:40:50;;;;;;;3.03;1.60;;;;;;;;;;7410151;19;19918;-79
2024/03/02 13:43:38;;;;;;;3.70;2.13;;;;;;;;;;7412716;19;19921;-78
2024/03/02 13:46:28;;;;;;;2.60;1.70;;;;;;;;;;7411175;19;19922;-78
2024/03/02 13:49:12;;;;;;;3.25;1.90;;;;;;;;;;7409636;19;19919;-78
2024/03/02 13:52:00;;;;;;;4.53;1.55;;;;;;;;;;7407170;19;20238;-78
2024/03/02 13:54:52;;;;;;;2.72;1.45;;;;;;;;;;7410541;19;20249;-78
2024/03/02 13:57:36;;;;;;;2.85;1.33;;;;;;;;;;7408237;19;19918;-78
2024/03/02 14:00:21;;;;;;;3.08;1.60;;;;;;;;;;7409203;19;19937;-78
2024/03/02 14:03:09;;;;;;;1.83;1.33;;;;;;;;;;7408165;19;20556;-78
2024/03/02 14:05:53;;;;;;;1.98;1.17;;;;;;;;;;7408720;19;19930;-78
2024/03/02 14:08:44;;;;;;;3.28;1.40;;;;;;;;;;7409504;19;19915;-78
2024/03/02 14:11:29;;;;;;;1.88;1.50;;;;;;;;;;7414858;19;19937;-79
2024/03/02 14:14:14;;;;;;;2.15;1.33;;;;;;;;;;7423655;19;19922;-79
2024/03/02 14:17:04;;;;;;;1.77;1.13;;;;;;;;;;7423217;19;19947;-79
2024/03/02 14:19:53;;;;;;;1.35;0.98;;;;;;;;;;7424578;19;19918;-79
2024/03/02 14:22:38;;;;;;;3.65;1.75;;;;;;;;;;7411799;19;19910;-79
2024/03/02 14:25:27;;;;;;;3.30;1.10;;;;;;;;;;7409352;19;19935;-79
2024/03/02 14:28:16;;;;;;;2.80;1.50;;;;;;;;;;7411092;19;19914;-79
2024/03/02 14:31:03;;;;;;;1.88;1.23;;;;;;;;;;7412402;19;20401;-79
2024/03/02 14:33:47;;;;;;;1.42;0.75;;;;;;;;;;7412291;19;20388;-79
2024/03/02 14:36:37;;;;;;;1.67;0.90;;;;;;;;;;7411541;19;19914;-79
2024/03/02 14:39:23;;;;;;;;;;;;;;;;;;7415892;19;19945;-79
2024/03/02 14:42:08;;;;;;;2.65;1.10;;;;;;;;;;7414976;19;19982;-80
2024/03/02 14:44:57;;;;;;;1.58;1.20;;;;;;;;;;7414212;19;20321;-80
2024/03/02 14:47:41;;;;;;;1.67;0.95;;;;;;;;;;7414393;19;20353;-79
2024/03/02 14:50:28;;;;;;;2.42;1.20;;;;;;;;;;7412162;19;19918;-79
2024/03/02 14:53:17;;;;;;;2.00;1.10;;;;;;;;;;7412743;19;19910;-79
2024/03/02 14:56:02;;;;;;;1.98;1.27;;;;;;;;;;7436647;19;19907;-79
2024/03/02 14:58:46;;;;;;;2.38;1.35;;;;;;;;;;7440472;19;19918;-79
2024/03/02 15:01:35;;;;;;;1.80;1.23;;;;;;;;;;7444196;19;19946;-78
2024/03/02 15:04:19;;;;;;;4.18;1.35;;;;;;;;;;7423938;19;19944;-78
2024/03/02 15:07:07;;;;;;;5.22;2.17;;;;;;;;;;7411953;19;19911;-78
2024/03/02 15:09:57;;;;;;;2.25;1.63;;;;;;;;;;7410475;19;19918;-79
2024/03/02 15:12:45;;;;;;;2.03;1.13;;;;;;;;;;7409096;19;19940;-79
2024/03/02 15:15:29;;;;;;;4.68;2.78;;;;;;;;;;7410256;19;20074;-79
2024/03/02 15:18:13;;;;;;;6.15;3.13;;;;;;;;;;7407990;19;19931;-79
2024/03/02 15:20:58;;;;;;;14.75;6.85;;;;;;;;;;7408498;19;19911;-78
2024/03/02 15:23:44;;;;;;;6.43;3.45;;;;;;;;;;7407173;19;19914;-77
2024/03/02 15:26:32;;;;;;;6.68;3.55;;;;;;;;;;7406959;19;19914;-77
2024/03/02 15:29:16;;;;;;;11.48;6.18;;;;;;;;;;7409719;19;19913;-78
2024/03/02 15:32:07;;;;;;;7.75;3.03;;;;;;;;;;7410106;19;19911;-78
2024/03/02 15:34:52;;;;;;;4.68;2.35;;;;;;;;;;7408781;19;19923;-78
2024/03/02 15:37:38;;;;;;;5.57;3.30;;;;;;;;;;7408343;19;19925;-78
2024/03/02 15:40:28;;;;;;;4.90;3.25;;;;;;;;;;7408977;19;20420;-78
2024/03/02 15:43:15;;;;;;;4.32;3.03;;;;;;;;;;7407912;19;20000;-78
2024/03/02 15:46:02;;;;;;;4.75;2.50;;;;;;;;;;7403230;19;19915;-77
2024/03/02 15:48:49;;;;;;;9.07;5.72;;;;;;;;;;7406702;19;19937;-78
2024/03/02 15:51:40;;;;;;;6.95;3.40;;;;;;;;;;7404979;19;19940;-78
2024/03/02 15:54:25;;;;;;;2.67;1.40;;;;;;;;;;7404518;19;20275;-79
2024/03/02 15:57:11;;;;;;;3.13;1.15;;;;;;;;;;7405476;19;19914;-79
2024/03/02 15:59:58;;;;;;;1.70;1.15;;;;;;;;;;7406812;19;19951;-79
2024/03/02 16:02:48;;;;;;;1.75;0.90;;;;;;;;;;7404561;19;20253;-79
2024/03/02 16:05:32;;;;;;;1.02;0.70;;;;;;;;;;7404601;19;19922;-79
2024/03/02 16:08:18;;;;;;;1.63;0.80;;;;;;;;;;7403748;19;20344;-78
2024/03/02 16:11:03;;;;;;;2.35;1.20;;;;;;;;;;7406396;19;19910;-79
2024/03/02 16:13:52;;;;;;;1.35;0.88;;;;;;;;;;7404505;19;20369;-79
2024/03/02 16:16:39;;;;;;;1.30;0.90;;;;;;;;;;7401898;19;20314;-79
2024/03/02 16:19:28;;;;;;;1.88;1.02;;;;;;;;;;7407554;19;19933;-78
2024/03/02 16:22:15;;;;;;;1.55;0.80;;;;;;;;;;7407469;19;20337;-79
2024/03/02 16:25:06;;;;;;;1.30;1.00;;;;;;;;;;7409104;19;19926;-78
2024/03/02 16:27:50;;;;;;;1.38;1.00;;;;;;;;;;7422328;19;19926;-78
2024/03/02 16:30:37;;;;;;;1.75;0.80;;;;;;;;;;7432621;19;19925;-78
2024/03/02 16:33:26;;;;;;;1.30;0.77;;;;;;;;;;7418861;19;19915;-78
2024/03/02 16:36:11;;;;;;;2.00;0.73;;;;;;;;;;7410081;19;19923;-78
2024/03/02 16:38:55;;;;;;;1.25;0.88;;;;;;;;;;7412996;19;19911;-78
2024/03/02 16:41:42;;;;;;;2.00;0.98;;;;;;;;;;7411631;19;20333;-78
2024/03/02 16:44:27;;;;;;;4.20;1.00;;;;;;;;;;7411971;19;19929;-79